sensor_id;sensor_type;location;lat;lon;timestamp;P1;durP1;ratioP1;P2;durP2;ratioP2
79751;SDS011;69234;47.446;21.636;2023-08-12T00:00:15;8.47;;;8.47;;
79751;SDS011;69234;47.446;21.636;2023-08-12T00:00:49;8.40;;;8.40;;
79751;SDS011;69234;47.446;21.636;2023-08-12T00:01:20;8.87;;;8.87;;
79751;SDS011;69234;47.446;21.636;2023-08-12T00:01:51;8.23;;;8.23;;
79751;SDS011;69234;47.446;21.636;2023-08-12T00:02:22;8.13;;;8.13;;
79751;SDS011;69234;47.446;21.636;2023-08-12T00:02:53;8.40;;;8.40;;
79751;SDS011;69234;47.446;21.636;2023-08-12T00:03:24;8.70;;;8.70;;
79751;SDS011;69234;47.446;21.636;2023-08-12T00:03:55;8.97;;;8.97;;
79751;SDS011;69234;47.446;21.636;2023-08-12T00:04:26;8.70;;;8.70;;
79751;SDS011;69234;47.446;21.636;2023-08-12T00:04:56;8.57;;;8.57;;
79751;SDS011;69234;47.446;21.636;2023-08-12T00:05:27;8.60;;;8.60;;
79751;SDS011;69234;47.446;21.636;2023-08-12T00:05:59;8.50;;;8.50;;
79751;SDS011;69234;47.446;21.636;2023-08-12T00:06:35;8.73;;;8.73;;
79751;SDS011;69234;47.446;21.636;2023-08-12T00:07:06;9.13;;;9.13;;
79751;SDS011;69234;47.446;21.636;2023-08-12T00:07:37;8.83;;;8.83;;
79751;SDS011;69234;47.446;21.636;2023-08-12T00:08:11;8.50;;;8.50;;
79751;SDS011;69234;47.446;21.636;2023-08-12T00:08:42;8.80;;;8.80;;
79751;SDS011;69234;47.446;21.636;2023-08-12T00:09:13;8.67;;;8.67;;
79751;SDS011;69234;47.446;21.636;2023-08-12T00:09:45;8.17;;;8.17;;
79751;SDS011;69234;47.446;21.636;2023-08-12T00:10:16;8.60;;;8.60;;
79751;SDS011;69234;47.446;21.636;2023-08-12T00:10:47;8.60;;;8.60;;
79751;SDS011;69234;47.446;21.636;2023-08-12T00:11:18;8.43;;;8.43;;
79751;SDS011;69234;47.446;21.636;2023-08-12T00:11:49;8.63;;;8.63;;
79751;SDS011;69234;47.446;21.636;2023-08-12T00:12:20;8.60;;;8.60;;
79751;SDS011;69234;47.446;21.636;2023-08-12T00:12:51;8.57;;;8.57;;
79751;SDS011;69234;47.446;21.636;2023-08-12T00:13:21;8.33;;;8.33;;
79751;SDS011;69234;47.446;21.636;2023-08-12T00:13:52;8.00;;;8.00;;
79751;SDS011;69234;47.446;21.636;2023-08-12T00:14:23;8.17;;;8.17;;
79751;SDS011;69234;47.446;21.636;2023-08-12T00:14:54;8.30;;;8.30;;
79751;SDS011;69234;47.446;21.636;2023-08-12T00:15:25;8.30;;;8.30;;
79751;SDS011;69234;47.446;21.636;2023-08-12T00:15:56;8.13;;;8.13;;
79751;SDS011;69234;47.446;21.636;2023-08-12T00:16:27;8.33;;;8.33;;
79751;SDS011;69234;47.446;21.636;2023-08-12T00:16:58;8.80;;;8.80;;
79751;SDS011;69234;47.446;21.636;2023-08-12T00:17:29;8.13;;;8.13;;
79751;SDS011;69234;47.446;21.636;2023-08-12T00:18:00;8.13;;;8.13;;
79751;SDS011;69234;47.446;21.636;2023-08-12T00:18:34;8.13;;;8.13;;
79751;SDS011;69234;47.446;21.636;2023-08-12T00:19:07;8.33;;;8.33;;
79751;SDS011;69234;47.446;21.636;2023-08-12T00:19:38;8.60;;;8.60;;
79751;SDS011;69234;47.446;21.636;2023-08-12T00:20:09;8.17;;;8.17;;
79751;SDS011;69234;47.446;21.636;2023-08-12T00:20:42;8.17;;;8.17;;
79751;SDS011;69234;47.446;21.636;2023-08-12T00:21:13;8.50;;;8.50;;
79751;SDS011;69234;47.446;21.636;2023-08-12T00:21:44;8.30;;;8.30;;
79751;SDS011;69234;47.446;21.636;2023-08-12T00:22:15;8.93;;;8.93;;
79751;SDS011;69234;47.446;21.636;2023-08-12T00:22:46;9.33;;;9.33;;
79751;SDS011;69234;47.446;21.636;2023-08-12T00:23:17;8.63;;;8.63;;
79751;SDS011;69234;47.446;21.636;2023-08-12T00:23:47;8.70;;;8.70;;
79751;SDS011;69234;47.446;21.636;2023-08-12T00:24:20;8.37;;;8.37;;
79751;SDS011;69234;47.446;21.636;2023-08-12T00:24:51;8.23;;;8.23;;
79751;SDS011;69234;47.446;21.636;2023-08-12T00:25:22;8.10;;;8.10;;
79751;SDS011;69234;47.446;21.636;2023-08-12T00:25:57;8.10;;;8.10;;
79751;SDS011;69234;47.446;21.636;2023-08-12T00:26:29;8.67;;;8.67;;
79751;SDS011;69234;47.446;21.636;2023-08-12T00:26:59;8.03;;;8.03;;
79751;SDS011;69234;47.446;21.636;2023-08-12T00:27:31;8.60;;;8.60;;
79751;SDS011;69234;47.446;21.636;2023-08-12T00:28:02;8.57;;;8.57;;
79751;SDS011;69234;47.446;21.636;2023-08-12T00:28:34;8.80;;;8.80;;
79751;SDS011;69234;47.446;21.636;2023-08-12T00:29:05;8.77;;;8.77;;
79751;SDS011;69234;47.446;21.636;2023-08-12T00:29:36;8.23;;;8.23;;
79751;SDS011;69234;47.446;21.636;2023-08-12T00:30:07;7.83;;;7.83;;
79751;SDS011;69234;47.446;21.636;2023-08-12T00:30:39;8.80;;;8.80;;
79751;SDS011;69234;47.446;21.636;2023-08-12T00:31:10;8.33;;;8.33;;
79751;SDS011;69234;47.446;21.636;2023-08-12T00:31:41;8.57;;;8.57;;
79751;SDS011;69234;47.446;21.636;2023-08-12T00:32:11;9.07;;;9.07;;
79751;SDS011;69234;47.446;21.636;2023-08-12T00:32:42;8.57;;;8.57;;
79751;SDS011;69234;47.446;21.636;2023-08-12T00:33:13;9.07;;;9.07;;
79751;SDS011;69234;47.446;21.636;2023-08-12T00:33:44;8.77;;;8.77;;
79751;SDS011;69234;47.446;21.636;2023-08-12T00:34:16;8.57;;;8.57;;
79751;SDS011;69234;47.446;21.636;2023-08-12T00:34:47;8.07;;;8.07;;
79751;SDS011;69234;47.446;21.636;2023-08-12T00:35:19;8.47;;;8.47;;
79751;SDS011;69234;47.446;21.636;2023-08-12T00:35:50;8.07;;;8.07;;
79751;SDS011;69234;47.446;21.636;2023-08-12T00:36:21;8.70;;;8.70;;
79751;SDS011;69234;47.446;21.636;2023-08-12T00:36:52;8.57;;;8.57;;
79751;SDS011;69234;47.446;21.636;2023-08-12T00:37:26;8.47;;;8.47;;
79751;SDS011;69234;47.446;21.636;2023-08-12T00:37:57;8.43;;;8.43;;
79751;SDS011;69234;47.446;21.636;2023-08-12T00:38:28;8.77;;;8.77;;
79751;SDS011;69234;47.446;21.636;2023-08-12T00:38:59;9.37;;;9.37;;
79751;SDS011;69234;47.446;21.636;2023-08-12T00:39:31;8.70;;;8.70;;
79751;SDS011;69234;47.446;21.636;2023-08-12T00:40:02;8.27;;;8.27;;
79751;SDS011;69234;47.446;21.636;2023-08-12T00:40:35;8.10;;;8.10;;
79751;SDS011;69234;47.446;21.636;2023-08-12T00:41:06;8.17;;;8.17;;
79751;SDS011;69234;47.446;21.636;2023-08-12T00:41:37;8.57;;;8.57;;
79751;SDS011;69234;47.446;21.636;2023-08-12T00:42:08;9.10;;;9.10;;
79751;SDS011;69234;47.446;21.636;2023-08-12T00:42:39;8.63;;;8.63;;
79751;SDS011;69234;47.446;21.636;2023-08-12T00:43:10;8.53;;;8.53;;
79751;SDS011;69234;47.446;21.636;2023-08-12T00:43:41;9.07;;;9.07;;
79751;SDS011;69234;47.446;21.636;2023-08-12T00:44:12;8.27;;;8.27;;
79751;SDS011;69234;47.446;21.636;2023-08-12T00:44:43;7.50;;;7.50;;
79751;SDS011;69234;47.446;21.636;2023-08-12T00:45:14;8.77;;;8.77;;
79751;SDS011;69234;47.446;21.636;2023-08-12T00:45:45;8.67;;;8.67;;
79751;SDS011;69234;47.446;21.636;2023-08-12T00:46:16;8.13;;;8.13;;
79751;SDS011;69234;47.446;21.636;2023-08-12T00:46:47;8.00;;;8.00;;
79751;SDS011;69234;47.446;21.636;2023-08-12T00:47:20;8.53;;;8.53;;
79751;SDS011;69234;47.446;21.636;2023-08-12T00:47:52;9.03;;;9.03;;
79751;SDS011;69234;47.446;21.636;2023-08-12T00:48:23;8.67;;;8.67;;
79751;SDS011;69234;47.446;21.636;2023-08-12T00:48:55;8.60;;;8.60;;
79751;SDS011;69234;47.446;21.636;2023-08-12T00:49:29;8.43;;;8.43;;
79751;SDS011;69234;47.446;21.636;2023-08-12T00:50:03;8.30;;;8.30;;
79751;SDS011;69234;47.446;21.636;2023-08-12T00:50:35;8.50;;;8.50;;
79751;SDS011;69234;47.446;21.636;2023-08-12T00:51:07;9.03;;;9.03;;
79751;SDS011;69234;47.446;21.636;2023-08-12T00:51:39;8.43;;;8.43;;
79751;SDS011;69234;47.446;21.636;2023-08-12T00:52:14;8.63;;;8.63;;
79751;SDS011;69234;47.446;21.636;2023-08-12T00:52:47;8.67;;;8.67;;
79751;SDS011;69234;47.446;21.636;2023-08-12T00:53:20;8.87;;;8.87;;
79751;SDS011;69234;47.446;21.636;2023-08-12T00:53:51;8.30;;;8.30;;
79751;SDS011;69234;47.446;21.636;2023-08-12T00:54:24;7.90;;;7.90;;
79751;SDS011;69234;47.446;21.636;2023-08-12T00:54:57;8.43;;;8.43;;
79751;SDS011;69234;47.446;21.636;2023-08-12T00:55:29;8.77;;;8.77;;
79751;SDS011;69234;47.446;21.636;2023-08-12T00:56:02;8.87;;;8.87;;
79751;SDS011;69234;47.446;21.636;2023-08-12T00:56:34;9.17;;;9.17;;
79751;SDS011;69234;47.446;21.636;2023-08-12T00:57:06;8.77;;;8.77;;
79751;SDS011;69234;47.446;21.636;2023-08-12T00:57:38;8.60;;;8.60;;
79751;SDS011;69234;47.446;21.636;2023-08-12T00:58:09;8.67;;;8.67;;
79751;SDS011;69234;47.446;21.636;2023-08-12T00:58:41;8.30;;;8.30;;
79751;SDS011;69234;47.446;21.636;2023-08-12T00:59:13;8.27;;;8.27;;
79751;SDS011;69234;47.446;21.636;2023-08-12T00:59:49;8.37;;;8.37;;
79751;SDS011;69234;47.446;21.636;2023-08-12T01:00:20;8.03;;;8.03;;
79751;SDS011;69234;47.446;21.636;2023-08-12T01:00:51;8.43;;;8.43;;
79751;SDS011;69234;47.446;21.636;2023-08-12T01:01:22;8.80;;;8.80;;
79751;SDS011;69234;47.446;21.636;2023-08-12T01:01:53;8.27;;;8.27;;
79751;SDS011;69234;47.446;21.636;2023-08-12T01:02:24;8.47;;;8.47;;
79751;SDS011;69234;47.446;21.636;2023-08-12T01:02:55;8.93;;;8.93;;
79751;SDS011;69234;47.446;21.636;2023-08-12T01:03:27;8.67;;;8.67;;
79751;SDS011;69234;47.446;21.636;2023-08-12T01:03:58;8.03;;;8.03;;
79751;SDS011;69234;47.446;21.636;2023-08-12T01:04:29;8.50;;;8.50;;
79751;SDS011;69234;47.446;21.636;2023-08-12T01:05:00;7.97;;;7.97;;
79751;SDS011;69234;47.446;21.636;2023-08-12T01:05:31;8.13;;;8.13;;
79751;SDS011;69234;47.446;21.636;2023-08-12T01:06:03;8.37;;;8.37;;
79751;SDS011;69234;47.446;21.636;2023-08-12T01:06:34;8.73;;;8.73;;
79751;SDS011;69234;47.446;21.636;2023-08-12T01:07:05;8.43;;;8.43;;
79751;SDS011;69234;47.446;21.636;2023-08-12T01:07:36;7.93;;;7.93;;
79751;SDS011;69234;47.446;21.636;2023-08-12T01:08:07;7.77;;;7.77;;
79751;SDS011;69234;47.446;21.636;2023-08-12T01:08:39;8.57;;;8.57;;
79751;SDS011;69234;47.446;21.636;2023-08-12T01:09:10;8.23;;;8.23;;
79751;SDS011;69234;47.446;21.636;2023-08-12T01:09:41;8.17;;;8.17;;
79751;SDS011;69234;47.446;21.636;2023-08-12T01:10:14;8.20;;;8.20;;
79751;SDS011;69234;47.446;21.636;2023-08-12T01:10:52;7.50;;;7.50;;
79751;SDS011;69234;47.446;21.636;2023-08-12T01:11:40;7.97;;;7.97;;
79751;SDS011;69234;47.446;21.636;2023-08-12T01:12:29;7.77;;;7.77;;
79751;SDS011;69234;47.446;21.636;2023-08-12T01:13:16;8.60;;;8.60;;
79751;SDS011;69234;47.446;21.636;2023-08-12T01:14:25;8.43;;;8.43;;
79751;SDS011;69234;47.446;21.636;2023-08-12T01:15:09;8.53;;;8.53;;
79751;SDS011;69234;47.446;21.636;2023-08-12T01:15:46;8.47;;;8.47;;
79751;SDS011;69234;47.446;21.636;2023-08-12T01:16:24;8.17;;;8.17;;
79751;SDS011;69234;47.446;21.636;2023-08-12T01:17:03;8.20;;;8.20;;
79751;SDS011;69234;47.446;21.636;2023-08-12T01:17:38;8.33;;;8.33;;
79751;SDS011;69234;47.446;21.636;2023-08-12T01:18:13;8.47;;;8.47;;
79751;SDS011;69234;47.446;21.636;2023-08-12T01:18:45;8.07;;;8.07;;
79751;SDS011;69234;47.446;21.636;2023-08-12T01:19:39;8.27;;;8.27;;
79751;SDS011;69234;47.446;21.636;2023-08-12T01:20:10;8.47;;;8.47;;
79751;SDS011;69234;47.446;21.636;2023-08-12T01:20:45;8.30;;;8.30;;
79751;SDS011;69234;47.446;21.636;2023-08-12T01:21:17;7.73;;;7.73;;
79751;SDS011;69234;47.446;21.636;2023-08-12T01:21:52;8.23;;;8.23;;
79751;SDS011;69234;47.446;21.636;2023-08-12T01:22:25;8.13;;;8.13;;
79751;SDS011;69234;47.446;21.636;2023-08-12T01:23:10;8.13;;;8.13;;
79751;SDS011;69234;47.446;21.636;2023-08-12T01:23:45;7.50;;;7.50;;
79751;SDS011;69234;47.446;21.636;2023-08-12T01:24:19;8.13;;;8.13;;
79751;SDS011;69234;47.446;21.636;2023-08-12T01:24:52;8.20;;;8.20;;
79751;SDS011;69234;47.446;21.636;2023-08-12T01:25:24;8.07;;;8.07;;
79751;SDS011;69234;47.446;21.636;2023-08-12T01:25:56;7.77;;;7.77;;
79751;SDS011;69234;47.446;21.636;2023-08-12T01:26:27;7.90;;;7.90;;
79751;SDS011;69234;47.446;21.636;2023-08-12T01:26:58;8.00;;;8.00;;
79751;SDS011;69234;47.446;21.636;2023-08-12T01:27:28;7.63;;;7.63;;
79751;SDS011;69234;47.446;21.636;2023-08-12T01:27:59;8.17;;;8.17;;
79751;SDS011;69234;47.446;21.636;2023-08-12T01:28:31;8.50;;;8.50;;
79751;SDS011;69234;47.446;21.636;2023-08-12T01:29:02;8.03;;;8.03;;
79751;SDS011;69234;47.446;21.636;2023-08-12T01:29:34;7.70;;;7.70;;
79751;SDS011;69234;47.446;21.636;2023-08-12T01:30:08;7.87;;;7.87;;
79751;SDS011;69234;47.446;21.636;2023-08-12T01:30:46;7.87;;;7.87;;
79751;SDS011;69234;47.446;21.636;2023-08-12T01:31:43;7.97;;;7.97;;
79751;SDS011;69234;47.446;21.636;2023-08-12T01:33:05;7.50;;;7.50;;
79751;SDS011;69234;47.446;21.636;2023-08-12T01:34:07;7.67;;;7.67;;
79751;SDS011;69234;47.446;21.636;2023-08-12T01:35:01;7.63;;;7.63;;
79751;SDS011;69234;47.446;21.636;2023-08-12T01:35:51;8.20;;;8.20;;
79751;SDS011;69234;47.446;21.636;2023-08-12T01:36:31;8.60;;;8.60;;
79751;SDS011;69234;47.446;21.636;2023-08-12T01:37:06;8.07;;;8.07;;
79751;SDS011;69234;47.446;21.636;2023-08-12T01:37:43;7.70;;;7.70;;
79751;SDS011;69234;47.446;21.636;2023-08-12T01:38:15;7.97;;;7.97;;
79751;SDS011;69234;47.446;21.636;2023-08-12T01:38:50;7.87;;;7.87;;
79751;SDS011;69234;47.446;21.636;2023-08-12T01:39:23;7.53;;;7.53;;
79751;SDS011;69234;47.446;21.636;2023-08-12T01:39:56;7.57;;;7.57;;
79751;SDS011;69234;47.446;21.636;2023-08-12T01:40:35;7.27;;;7.27;;
79751;SDS011;69234;47.446;21.636;2023-08-12T01:41:11;7.97;;;7.97;;
79751;SDS011;69234;47.446;21.636;2023-08-12T01:41:44;8.23;;;8.23;;
79751;SDS011;69234;47.446;21.636;2023-08-12T01:42:16;7.70;;;7.70;;
79751;SDS011;69234;47.446;21.636;2023-08-12T01:42:50;7.57;;;7.57;;
79751;SDS011;69234;47.446;21.636;2023-08-12T01:43:22;8.07;;;8.07;;
79751;SDS011;69234;47.446;21.636;2023-08-12T01:43:53;8.07;;;8.07;;
79751;SDS011;69234;47.446;21.636;2023-08-12T01:44:24;8.10;;;8.10;;
79751;SDS011;69234;47.446;21.636;2023-08-12T01:44:55;7.83;;;7.83;;
79751;SDS011;69234;47.446;21.636;2023-08-12T01:45:31;7.67;;;7.67;;
79751;SDS011;69234;47.446;21.636;2023-08-12T01:46:02;7.50;;;7.50;;
79751;SDS011;69234;47.446;21.636;2023-08-12T01:46:33;7.40;;;7.40;;
79751;SDS011;69234;47.446;21.636;2023-08-12T01:47:05;7.60;;;7.60;;
79751;SDS011;69234;47.446;21.636;2023-08-12T01:47:42;8.07;;;8.07;;
79751;SDS011;69234;47.446;21.636;2023-08-12T01:48:14;8.13;;;8.13;;
79751;SDS011;69234;47.446;21.636;2023-08-12T01:48:44;7.97;;;7.97;;
79751;SDS011;69234;47.446;21.636;2023-08-12T01:49:15;7.63;;;7.63;;
79751;SDS011;69234;47.446;21.636;2023-08-12T01:49:47;8.00;;;8.00;;
79751;SDS011;69234;47.446;21.636;2023-08-12T01:50:18;7.43;;;7.43;;
79751;SDS011;69234;47.446;21.636;2023-08-12T01:50:49;7.53;;;7.53;;
79751;SDS011;69234;47.446;21.636;2023-08-12T01:51:20;7.73;;;7.73;;
79751;SDS011;69234;47.446;21.636;2023-08-12T01:51:51;7.97;;;7.97;;
79751;SDS011;69234;47.446;21.636;2023-08-12T01:52:22;7.97;;;7.97;;
79751;SDS011;69234;47.446;21.636;2023-08-12T01:52:53;7.70;;;7.70;;
79751;SDS011;69234;47.446;21.636;2023-08-12T01:53:23;8.10;;;8.10;;
79751;SDS011;69234;47.446;21.636;2023-08-12T01:53:54;8.73;;;8.73;;
79751;SDS011;69234;47.446;21.636;2023-08-12T01:54:25;8.43;;;8.43;;
79751;SDS011;69234;47.446;21.636;2023-08-12T01:54:56;8.37;;;8.37;;
79751;SDS011;69234;47.446;21.636;2023-08-12T01:55:27;7.87;;;7.87;;
79751;SDS011;69234;47.446;21.636;2023-08-12T01:55:59;7.77;;;7.77;;
79751;SDS011;69234;47.446;21.636;2023-08-12T01:56:30;7.57;;;7.57;;
79751;SDS011;69234;47.446;21.636;2023-08-12T01:57:02;7.50;;;7.50;;
79751;SDS011;69234;47.446;21.636;2023-08-12T01:57:35;8.10;;;8.10;;
79751;SDS011;69234;47.446;21.636;2023-08-12T01:58:08;8.20;;;8.20;;
79751;SDS011;69234;47.446;21.636;2023-08-12T01:58:39;8.13;;;8.13;;
79751;SDS011;69234;47.446;21.636;2023-08-12T01:59:10;8.07;;;8.07;;
79751;SDS011;69234;47.446;21.636;2023-08-12T01:59:41;7.63;;;7.63;;
79751;SDS011;69234;47.446;21.636;2023-08-12T02:00:15;8.07;;;8.07;;
79751;SDS011;69234;47.446;21.636;2023-08-12T02:00:48;7.80;;;7.80;;
79751;SDS011;69234;47.446;21.636;2023-08-12T02:01:19;7.80;;;7.80;;
79751;SDS011;69234;47.446;21.636;2023-08-12T02:01:50;7.60;;;7.60;;
79751;SDS011;69234;47.446;21.636;2023-08-12T02:02:21;7.67;;;7.67;;
79751;SDS011;69234;47.446;21.636;2023-08-12T02:02:53;7.50;;;7.50;;
79751;SDS011;69234;47.446;21.636;2023-08-12T02:03:23;7.43;;;7.43;;
79751;SDS011;69234;47.446;21.636;2023-08-12T02:03:55;7.40;;;7.40;;
79751;SDS011;69234;47.446;21.636;2023-08-12T02:04:26;8.00;;;8.00;;
79751;SDS011;69234;47.446;21.636;2023-08-12T02:04:58;7.67;;;7.67;;
79751;SDS011;69234;47.446;21.636;2023-08-12T02:05:29;7.40;;;7.40;;
79751;SDS011;69234;47.446;21.636;2023-08-12T02:06:00;7.50;;;7.50;;
79751;SDS011;69234;47.446;21.636;2023-08-12T02:06:31;7.70;;;7.70;;
79751;SDS011;69234;47.446;21.636;2023-08-12T02:07:04;7.53;;;7.53;;
79751;SDS011;69234;47.446;21.636;2023-08-12T02:07:35;7.10;;;7.10;;
79751;SDS011;69234;47.446;21.636;2023-08-12T02:08:06;7.70;;;7.70;;
79751;SDS011;69234;47.446;21.636;2023-08-12T02:08:39;7.37;;;7.37;;
79751;SDS011;69234;47.446;21.636;2023-08-12T02:09:10;7.67;;;7.67;;
79751;SDS011;69234;47.446;21.636;2023-08-12T02:09:41;7.67;;;7.67;;
79751;SDS011;69234;47.446;21.636;2023-08-12T02:10:12;7.50;;;7.50;;
79751;SDS011;69234;47.446;21.636;2023-08-12T02:10:44;7.53;;;7.53;;
79751;SDS011;69234;47.446;21.636;2023-08-12T02:11:15;7.83;;;7.83;;
79751;SDS011;69234;47.446;21.636;2023-08-12T02:11:46;7.10;;;7.10;;
79751;SDS011;69234;47.446;21.636;2023-08-12T02:12:17;7.40;;;7.40;;
79751;SDS011;69234;47.446;21.636;2023-08-12T02:12:48;7.30;;;7.30;;
79751;SDS011;69234;47.446;21.636;2023-08-12T02:13:19;8.00;;;8.00;;
79751;SDS011;69234;47.446;21.636;2023-08-12T02:13:50;7.30;;;7.30;;
79751;SDS011;69234;47.446;21.636;2023-08-12T02:14:21;7.13;;;7.13;;
79751;SDS011;69234;47.446;21.636;2023-08-12T02:14:52;7.47;;;7.47;;
79751;SDS011;69234;47.446;21.636;2023-08-12T02:15:23;7.23;;;7.23;;
79751;SDS011;69234;47.446;21.636;2023-08-12T02:15:54;7.43;;;7.43;;
79751;SDS011;69234;47.446;21.636;2023-08-12T02:16:26;7.57;;;7.57;;
79751;SDS011;69234;47.446;21.636;2023-08-12T02:16:57;7.97;;;7.97;;
79751;SDS011;69234;47.446;21.636;2023-08-12T02:17:29;7.87;;;7.87;;
79751;SDS011;69234;47.446;21.636;2023-08-12T02:17:59;7.23;;;7.23;;
79751;SDS011;69234;47.446;21.636;2023-08-12T02:18:31;7.03;;;7.03;;
79751;SDS011;69234;47.446;21.636;2023-08-12T02:19:02;7.17;;;7.17;;
79751;SDS011;69234;47.446;21.636;2023-08-12T02:19:33;7.73;;;7.73;;
79751;SDS011;69234;47.446;21.636;2023-08-12T02:20:04;8.23;;;8.23;;
79751;SDS011;69234;47.446;21.636;2023-08-12T02:20:36;8.53;;;8.53;;
79751;SDS011;69234;47.446;21.636;2023-08-12T02:21:07;7.57;;;7.57;;
79751;SDS011;69234;47.446;21.636;2023-08-12T02:21:38;7.53;;;7.53;;
79751;SDS011;69234;47.446;21.636;2023-08-12T02:22:09;7.50;;;7.50;;
79751;SDS011;69234;47.446;21.636;2023-08-12T02:22:40;7.57;;;7.57;;
79751;SDS011;69234;47.446;21.636;2023-08-12T02:23:11;7.93;;;7.93;;
79751;SDS011;69234;47.446;21.636;2023-08-12T02:23:42;7.70;;;7.70;;
79751;SDS011;69234;47.446;21.636;2023-08-12T02:24:15;7.53;;;7.53;;
79751;SDS011;69234;47.446;21.636;2023-08-12T02:24:46;7.23;;;7.23;;
79751;SDS011;69234;47.446;21.636;2023-08-12T02:25:17;8.03;;;8.03;;
79751;SDS011;69234;47.446;21.636;2023-08-12T02:25:48;7.63;;;7.63;;
79751;SDS011;69234;47.446;21.636;2023-08-12T02:26:18;7.87;;;7.87;;
79751;SDS011;69234;47.446;21.636;2023-08-12T02:26:52;7.80;;;7.80;;
79751;SDS011;69234;47.446;21.636;2023-08-12T02:27:23;8.43;;;8.43;;
79751;SDS011;69234;47.446;21.636;2023-08-12T02:27:55;7.87;;;7.87;;
79751;SDS011;69234;47.446;21.636;2023-08-12T02:28:26;7.70;;;7.70;;
79751;SDS011;69234;47.446;21.636;2023-08-12T02:28:57;7.27;;;7.27;;
79751;SDS011;69234;47.446;21.636;2023-08-12T02:29:27;7.13;;;7.13;;
79751;SDS011;69234;47.446;21.636;2023-08-12T02:29:58;7.53;;;7.53;;
79751;SDS011;69234;47.446;21.636;2023-08-12T02:30:31;7.53;;;7.53;;
79751;SDS011;69234;47.446;21.636;2023-08-12T02:31:02;7.70;;;7.70;;
79751;SDS011;69234;47.446;21.636;2023-08-12T02:31:33;8.33;;;8.33;;
79751;SDS011;69234;47.446;21.636;2023-08-12T02:32:04;7.97;;;7.97;;
79751;SDS011;69234;47.446;21.636;2023-08-12T02:32:35;7.67;;;7.67;;
79751;SDS011;69234;47.446;21.636;2023-08-12T02:33:06;7.70;;;7.70;;
79751;SDS011;69234;47.446;21.636;2023-08-12T02:33:37;7.37;;;7.37;;
79751;SDS011;69234;47.446;21.636;2023-08-12T02:34:08;7.73;;;7.73;;
79751;SDS011;69234;47.446;21.636;2023-08-12T02:34:39;7.90;;;7.90;;
79751;SDS011;69234;47.446;21.636;2023-08-12T02:35:14;7.37;;;7.37;;
79751;SDS011;69234;47.446;21.636;2023-08-12T02:35:45;7.57;;;7.57;;
79751;SDS011;69234;47.446;21.636;2023-08-12T02:36:16;8.23;;;8.23;;
79751;SDS011;69234;47.446;21.636;2023-08-12T02:36:47;8.03;;;8.03;;
79751;SDS011;69234;47.446;21.636;2023-08-12T02:37:18;7.80;;;7.80;;
79751;SDS011;69234;47.446;21.636;2023-08-12T02:37:50;8.03;;;8.03;;
79751;SDS011;69234;47.446;21.636;2023-08-12T02:38:21;7.90;;;7.90;;
79751;SDS011;69234;47.446;21.636;2023-08-12T02:38:54;7.83;;;7.83;;
79751;SDS011;69234;47.446;21.636;2023-08-12T02:39:25;7.97;;;7.97;;
79751;SDS011;69234;47.446;21.636;2023-08-12T02:39:56;8.27;;;8.27;;
79751;SDS011;69234;47.446;21.636;2023-08-12T02:40:27;7.60;;;7.60;;
79751;SDS011;69234;47.446;21.636;2023-08-12T02:40:58;8.07;;;8.07;;
79751;SDS011;69234;47.446;21.636;2023-08-12T02:41:29;7.60;;;7.60;;
79751;SDS011;69234;47.446;21.636;2023-08-12T02:42:01;7.07;;;7.07;;
79751;SDS011;69234;47.446;21.636;2023-08-12T02:42:32;7.33;;;7.33;;
79751;SDS011;69234;47.446;21.636;2023-08-12T02:43:03;7.80;;;7.80;;
79751;SDS011;69234;47.446;21.636;2023-08-12T02:43:34;7.83;;;7.83;;
79751;SDS011;69234;47.446;21.636;2023-08-12T02:44:06;7.80;;;7.80;;
79751;SDS011;69234;47.446;21.636;2023-08-12T02:44:37;7.23;;;7.23;;
79751;SDS011;69234;47.446;21.636;2023-08-12T02:45:08;7.30;;;7.30;;
79751;SDS011;69234;47.446;21.636;2023-08-12T02:45:39;7.67;;;7.67;;
79751;SDS011;69234;47.446;21.636;2023-08-12T02:46:10;7.90;;;7.90;;
79751;SDS011;69234;47.446;21.636;2023-08-12T02:46:41;7.83;;;7.83;;
79751;SDS011;69234;47.446;21.636;2023-08-12T02:47:12;7.70;;;7.70;;
79751;SDS011;69234;47.446;21.636;2023-08-12T02:47:43;7.87;;;7.87;;
79751;SDS011;69234;47.446;21.636;2023-08-12T02:48:14;7.70;;;7.70;;
79751;SDS011;69234;47.446;21.636;2023-08-12T02:48:45;7.53;;;7.53;;
79751;SDS011;69234;47.446;21.636;2023-08-12T02:49:19;7.93;;;7.93;;
79751;SDS011;69234;47.446;21.636;2023-08-12T02:49:50;7.77;;;7.77;;
79751;SDS011;69234;47.446;21.636;2023-08-12T02:50:21;7.50;;;7.50;;
79751;SDS011;69234;47.446;21.636;2023-08-12T02:50:52;7.67;;;7.67;;
79751;SDS011;69234;47.446;21.636;2023-08-12T02:51:23;7.87;;;7.87;;
79751;SDS011;69234;47.446;21.636;2023-08-12T02:51:54;8.20;;;8.20;;
79751;SDS011;69234;47.446;21.636;2023-08-12T02:52:25;7.83;;;7.83;;
79751;SDS011;69234;47.446;21.636;2023-08-12T02:52:56;8.20;;;8.20;;
79751;SDS011;69234;47.446;21.636;2023-08-12T02:53:26;8.03;;;8.03;;
79751;SDS011;69234;47.446;21.636;2023-08-12T02:53:58;8.00;;;8.00;;
79751;SDS011;69234;47.446;21.636;2023-08-12T02:54:29;7.87;;;7.87;;
79751;SDS011;69234;47.446;21.636;2023-08-12T02:55:00;7.87;;;7.87;;
79751;SDS011;69234;47.446;21.636;2023-08-12T02:55:31;7.70;;;7.70;;
79751;SDS011;69234;47.446;21.636;2023-08-12T02:56:02;7.67;;;7.67;;
79751;SDS011;69234;47.446;21.636;2023-08-12T02:56:33;7.60;;;7.60;;
79751;SDS011;69234;47.446;21.636;2023-08-12T02:57:04;7.70;;;7.70;;
79751;SDS011;69234;47.446;21.636;2023-08-12T02:57:35;7.90;;;7.90;;
79751;SDS011;69234;47.446;21.636;2023-08-12T02:58:06;8.50;;;8.50;;
79751;SDS011;69234;47.446;21.636;2023-08-12T02:58:37;7.50;;;7.50;;
79751;SDS011;69234;47.446;21.636;2023-08-12T02:59:08;7.50;;;7.50;;
79751;SDS011;69234;47.446;21.636;2023-08-12T02:59:39;7.97;;;7.97;;
79751;SDS011;69234;47.446;21.636;2023-08-12T03:00:10;8.17;;;8.17;;
79751;SDS011;69234;47.446;21.636;2023-08-12T03:00:42;7.37;;;7.37;;
79751;SDS011;69234;47.446;21.636;2023-08-12T03:01:16;7.47;;;7.47;;
79751;SDS011;69234;47.446;21.636;2023-08-12T03:01:48;7.63;;;7.63;;
79751;SDS011;69234;47.446;21.636;2023-08-12T03:02:19;7.87;;;7.87;;
79751;SDS011;69234;47.446;21.636;2023-08-12T03:02:49;7.87;;;7.87;;
79751;SDS011;69234;47.446;21.636;2023-08-12T03:03:20;7.40;;;7.40;;
79751;SDS011;69234;47.446;21.636;2023-08-12T03:03:51;7.43;;;7.43;;
79751;SDS011;69234;47.446;21.636;2023-08-12T03:04:22;7.73;;;7.73;;
79751;SDS011;69234;47.446;21.636;2023-08-12T03:04:53;7.53;;;7.53;;
79751;SDS011;69234;47.446;21.636;2023-08-12T03:05:24;7.87;;;7.87;;
79751;SDS011;69234;47.446;21.636;2023-08-12T03:05:55;7.57;;;7.57;;
79751;SDS011;69234;47.446;21.636;2023-08-12T03:06:26;7.70;;;7.70;;
79751;SDS011;69234;47.446;21.636;2023-08-12T03:06:57;7.53;;;7.53;;
79751;SDS011;69234;47.446;21.636;2023-08-12T03:07:28;7.53;;;7.53;;
79751;SDS011;69234;47.446;21.636;2023-08-12T03:07:59;8.03;;;8.03;;
79751;SDS011;69234;47.446;21.636;2023-08-12T03:08:31;8.47;;;8.47;;
79751;SDS011;69234;47.446;21.636;2023-08-12T03:09:02;7.90;;;7.90;;
79751;SDS011;69234;47.446;21.636;2023-08-12T03:09:33;8.20;;;8.20;;
79751;SDS011;69234;47.446;21.636;2023-08-12T03:10:05;7.53;;;7.53;;
79751;SDS011;69234;47.446;21.636;2023-08-12T03:10:37;7.97;;;7.97;;
79751;SDS011;69234;47.446;21.636;2023-08-12T03:11:09;7.70;;;7.70;;
79751;SDS011;69234;47.446;21.636;2023-08-12T03:11:40;7.93;;;7.93;;
79751;SDS011;69234;47.446;21.636;2023-08-12T03:12:13;7.93;;;7.93;;
79751;SDS011;69234;47.446;21.636;2023-08-12T03:12:44;7.70;;;7.70;;